Time;durP1;ratioP1;P1;durP2;ratioP2;P2;SDS_P1;SDS_P2;PMS_P1;PMS_P2;Temp;Humidity;BMP_temperature;BMP_pressure;BME280_temperature;BME280_humidity;BME280_pressure;Samples;Min_cycle;Max_cycle;Signal;HPM_P1;HPM_P2
2024/04/16 00:00:26;;;;;;;6.13;0.73;;;5.10;13.50;;;;;;5334559;26;20773;-70
2024/04/16 00:02:52;;;;;;;3.40;1.00;;;5.10;14.10;;;;;;5334577;26;20225;-73
2024/04/16 00:05:18;;;;;;;3.77;0.90;;;5.00;13.00;;;;;;5334444;26;20229;-70
2024/04/16 00:07:43;;;;;;;1.70;0.70;;;5.00;14.40;;;;;;5334607;26;20648;-70
2024/04/16 00:10:10;;;;;;;2.73;0.70;;;5.00;13.30;;;;;;5336193;26;20234;-71
2024/04/16 00:12:36;;;;;;;2.13;0.70;;;5.00;15.40;;;;;;5336785;26;21074;-70
2024/04/16 00:15:02;;;;;;;1.77;0.60;;;5.00;14.40;;;;;;5335874;26;20449;-70
2024/04/16 00:17:28;;;;;;;1.50;0.50;;;5.00;12.70;;;;;;5335212;26;20329;-70
2024/04/16 00:19:56;;;;;;;2.97;0.80;;;5.00;14.50;;;;;;5335478;26;20391;-71
2024/04/16 00:22:22;;;;;;;1.48;0.55;;;5.00;14.30;;;;;;5333296;26;20271;-70
2024/04/16 00:24:47;;;;;;;3.20;0.67;;;5.00;12.70;;;;;;5334650;26;20335;-70
2024/04/16 00:27:13;;;;;;;3.43;1.27;;;5.10;12.10;;;;;;5334535;26;20611;-70
2024/04/16 00:29:39;;;;;;;1.80;0.93;;;5.00;12.30;;;;;;5332437;26;20293;-70
2024/04/16 00:32:05;;;;;;;1.93;0.80;;;5.10;13.30;;;;;;5334356;26;20227;-70
2024/04/16 00:34:31;;;;;;;1.50;0.50;;;5.10;11.60;;;;;;5334308;26;20764;-70
2024/04/16 00:36:56;;;;;;;2.20;1.00;;;5.10;11.60;;;;;;5337346;26;20254;-70
2024/04/16 00:39:22;;;;;;;1.90;0.70;;;5.10;10.80;;;;;;5337442;26;20285;-70
2024/04/16 00:41:48;;;;;;;4.07;1.00;;;5.10;10.60;;;;;;5337752;26;20270;-69
2024/04/16 00:44:13;;;;;;;2.90;0.80;;;5.20;11.40;;;;;;5337032;26;20603;-69
2024/04/16 00:46:39;;;;;;;2.73;1.23;;;5.20;9.40;;;;;;5337212;26;20225;-70
2024/04/16 00:49:05;;;;;;;6.90;1.07;;;5.20;8.40;;;;;;5337058;26;20275;-69
2024/04/16 00:51:32;;;;;;;2.73;1.03;;;5.20;7.60;;;;;;5336901;26;20284;-70
2024/04/16 00:53:58;;;;;;;3.70;1.33;;;5.20;8.90;;;;;;5336592;26;20452;-70
2024/04/16 00:56:24;;;;;;;6.60;1.10;;;5.20;9.80;;;;;;5337409;26;20225;-70
2024/04/16 00:58:50;;;;;;;1.90;0.83;;;5.20;9.30;;;;;;5337126;26;20652;-70
2024/04/16 01:01:16;;;;;;;3.53;1.27;;;5.20;9.60;;;;;;5337070;26;20234;-70
2024/04/16 01:03:43;;;;;;;1.70;0.70;;;5.20;9.60;;;;;;5334933;26;20507;-70
2024/04/16 01:06:10;;;;;;;2.65;1.05;;;5.20;8.90;;;;;;5337401;26;20235;-70
2024/04/16 01:08:35;;;;;;;3.33;0.90;;;5.20;10.70;;;;;;5337121;26;20225;-70
2024/04/16 01:11:01;;;;;;;3.60;1.30;;;5.10;9.70;;;;;;5336962;26;20463;-71
2024/04/16 01:13:26;;;;;;;2.80;1.37;;;5.10;8.90;;;;;;5335037;26;20245;-70
2024/04/16 01:15:52;;;;;;;6.30;1.10;;;5.20;9.70;;;;;;5335410;26;20281;-70
2024/04/16 01:18:17;;;;;;;5.93;1.40;;;5.10;10.00;;;;;;5335030;26;20271;-71
2024/04/16 01:20:43;;;;;;;3.10;1.23;;;5.10;9.50;;;;;;5335125;26;20283;-70
2024/04/16 01:23:09;;;;;;;2.00;0.90;;;5.10;10.50;;;;;;5336931;26;20265;-69
2024/04/16 01:25:35;;;;;;;3.03;1.33;;;5.10;10.70;;;;;;5334562;26;20465;-69
2024/04/16 01:28:01;;;;;;;2.67;1.02;;;5.10;10.80;;;;;;5334960;26;20232;-69
2024/04/16 01:30:27;;;;;;;2.75;1.00;;;5.10;9.70;;;;;;5334792;26;20297;-69
2024/04/16 01:32:52;;;;;;;5.57;1.50;;;5.10;9.70;;;;;;5335043;26;20231;-70
2024/04/16 01:35:18;;;;;;;3.27;1.00;;;5.10;10.60;;;;;;5336303;26;20274;-69
2024/04/16 01:37:43;;;;;;;2.90;0.97;;;5.20;10.90;;;;;;5334735;26;20613;-69
2024/04/16 01:40:10;;;;;;;2.97;0.93;;;5.10;9.80;;;;;;5335060;26;20334;-71
2024/04/16 01:42:35;;;;;;;6.88;0.85;;;5.20;12.20;;;;;;5336736;26;20228;-71
2024/04/16 01:45:01;;;;;;;3.03;1.27;;;5.20;12.00;;;;;;5336103;26;20270;-71
2024/04/16 01:47:27;;;;;;;2.40;1.30;;;5.10;9.60;;;;;;5335513;26;20228;-71
2024/04/16 01:49:53;;;;;;;1.80;0.80;;;5.10;11.10;;;;;;5336494;26;20286;-71
2024/04/16 01:52:18;;;;;;;1.67;0.67;;;5.10;10.70;;;;;;5336318;26;20439;-71
2024/04/16 01:54:44;;;;;;;4.60;1.60;;;5.00;11.60;;;;;;5335800;26;20577;-71
2024/04/16 01:57:09;;;;;;;2.97;0.90;;;5.10;12.70;;;;;;5336391;26;20579;-71
2024/04/16 01:59:35;;;;;;;2.27;0.93;;;5.10;11.60;;;;;;5336366;26;20288;-71
2024/04/16 02:02:00;;;;;;;2.70;0.83;;;5.00;10.30;;;;;;5336162;26;20267;-71
2024/04/16 02:04:27;;;;;;;9.70;1.10;;;5.00;11.30;;;;;;5335949;26;20224;-71
2024/04/16 02:06:52;;;;;;;2.63;0.73;;;5.00;11.00;;;;;;5334710;26;20320;-70
2024/04/16 02:09:18;;;;;;;4.47;1.17;;;5.00;12.10;;;;;;5336329;26;20231;-71
2024/04/16 02:11:44;;;;;;;2.17;0.70;;;5.00;12.00;;;;;;5336726;26;20273;-70
2024/04/16 02:14:10;;;;;;;1.90;1.00;;;5.00;11.90;;;;;;5336408;26;20259;-71
2024/04/16 02:16:35;;;;;;;2.10;0.97;;;5.00;11.80;;;;;;5336374;26;20566;-71
2024/04/16 02:19:01;;;;;;;2.73;1.23;;;5.00;12.10;;;;;;5334223;26;20254;-70
2024/04/16 02:21:27;;;;;;;2.30;0.93;;;5.10;12.20;;;;;;5336047;26;20244;-70
2024/04/16 02:23:52;;;;;;;3.30;1.00;;;5.00;11.60;;;;;;5335930;26;20451;-70
2024/04/16 02:26:18;;;;;;;2.67;1.27;;;5.00;13.90;;;;;;5335884;26;20223;-71
2024/04/16 02:28:43;;;;;;;3.53;0.77;;;4.90;12.30;;;;;;5335931;26;20270;-72
2024/04/16 02:31:09;;;;;;;1.77;0.70;;;5.00;12.80;;;;;;5336078;26;20333;-71
2024/04/16 02:33:35;;;;;;;2.93;1.33;;;5.00;12.70;;;;;;5335519;26;20221;-71
2024/04/16 02:36:01;;;;;;;1.80;0.60;;;5.00;13.40;;;;;;5335753;26;20220;-72
2024/04/16 02:38:27;;;;;;;3.88;1.25;;;5.00;13.00;;;;;;5335805;26;20295;-71
2024/04/16 02:40:52;;;;;;;1.60;0.65;;;5.00;14.80;;;;;;5335734;26;20320;-71
2024/04/16 02:43:18;;;;;;;1.90;1.00;;;5.00;15.10;;;;;;5335836;26;20657;-72
2024/04/16 02:45:43;;;;;;;2.20;1.00;;;5.00;15.10;;;;;;5335185;26;20622;-71
2024/04/16 02:48:09;;;;;;;2.03;0.90;;;5.00;14.70;;;;;;5335614;26;20283;-71
2024/04/16 02:50:34;;;;;;;2.00;1.00;;;4.90;14.70;;;;;;5335577;26;20251;-72
2024/04/16 02:53:00;;;;;;;2.00;0.90;;;4.90;15.80;;;;;;5335666;26;20854;-72
2024/04/16 02:55:25;;;;;;;3.20;1.37;;;4.90;16.30;;;;;;5335293;26;20239;-71
2024/04/16 02:57:51;;;;;;;2.73;0.80;;;4.80;15.80;;;;;;5334278;26;20225;-71
2024/04/16 03:00:17;;;;;;;2.40;0.83;;;4.80;17.50;;;;;;5335136;26;20568;-71
2024/04/16 03:02:42;;;;;;;3.50;0.70;;;4.80;17.50;;;;;;5335588;26;20571;-71
2024/04/16 03:05:08;;;;;;;2.30;0.90;;;4.80;16.50;;;;;;5335024;26;20339;-71
2024/04/16 03:07:33;;;;;;;2.10;0.93;;;4.80;16.80;;;;;;5335286;26;20267;-71
2024/04/16 03:10:00;;;;;;;3.10;1.00;;;4.70;15.70;;;;;;5335135;26;20240;-71
2024/04/16 03:12:25;;;;;;;1.92;0.70;;;4.70;16.20;;;;;;5335516;26;20224;-70
2024/04/16 03:14:52;;;;;;;3.30;0.80;;;4.70;16.50;;;;;;5334999;26;20762;-71
2024/04/16 03:17:17;;;;;;;2.13;0.90;;;4.70;18.10;;;;;;5335166;26;20274;-71
2024/04/16 03:19:43;;;;;;;1.70;0.70;;;4.70;15.40;;;;;;5333645;26;20247;-71
2024/04/16 03:22:09;;;;;;;1.80;1.00;;;4.70;15.70;;;;;;5335368;26;20568;-71
2024/04/16 03:24:35;;;;;;;4.27;0.70;;;4.70;15.70;;;;;;5335288;26;20289;-72
2024/04/16 03:27:00;;;;;;;2.23;1.20;;;4.70;17.00;;;;;;5335310;26;20458;-71
2024/04/16 03:29:26;;;;;;;3.57;1.00;;;4.70;16.60;;;;;;5333405;26;20278;-70
2024/04/16 03:31:51;;;;;;;1.73;0.50;;;4.60;17.40;;;;;;5335248;26;20238;-71
2024/04/16 03:34:17;;;;;;;1.83;0.77;;;4.60;16.70;;;;;;5333140;26;20241;-71
2024/04/16 03:36:42;;;;;;;1.77;0.47;;;4.70;16.80;;;;;;5335368;26;20224;-70
2024/04/16 03:39:08;;;;;;;1.60;0.50;;;4.70;16.40;;;;;;5336317;26;20263;-70
2024/04/16 03:41:33;;;;;;;2.80;0.50;;;4.60;17.20;;;;;;5336881;26;20282;-70
2024/04/16 03:43:59;;;;;;;1.70;0.60;;;4.60;16.70;;;;;;5333742;26;20233;-71
2024/04/16 03:46:24;;;;;;;3.03;0.73;;;4.60;16.80;;;;;;5336203;26;20242;-71
2024/04/16 03:48:50;;;;;;;1.70;0.70;;;4.60;16.20;;;;;;5334528;26;20236;-71
2024/04/16 03:51:15;;;;;;;2.07;0.50;;;4.60;15.60;;;;;;5334180;26;20244;-71
2024/04/16 03:53:41;;;;;;;2.10;0.70;;;4.60;15.60;;;;;;5334766;26;20272;-71
2024/04/16 03:56:06;;;;;;;1.67;0.63;;;4.60;14.90;;;;;;5335145;26;20269;-71
2024/04/16 03:58:34;;;;;;;3.43;0.60;;;4.60;15.60;;;;;;5335030;26;20422;-70
2024/04/16 04:01:00;;;;;;;1.67;0.77;;;4.50;15.60;;;;;;5334914;26;20792;-71
2024/04/16 04:03:26;;;;;;;1.90;0.60;;;4.50;15.60;;;;;;5334750;26;20228;-71
2024/04/16 04:05:52;;;;;;;2.70;0.85;;;4.50;16.00;;;;;;5332742;26;20459;-71
2024/04/16 04:08:18;;;;;;;2.07;0.70;;;4.50;15.20;;;;;;5334555;26;20227;-71
2024/04/16 04:10:43;;;;;;;2.00;0.93;;;4.50;15.20;;;;;;5333907;26;20517;-71
2024/04/16 04:13:09;;;;;;;7.37;0.70;;;4.50;14.00;;;;;;5332703;26;20686;-71
2024/04/16 04:15:38;;;;;;;11.70;1.50;;;4.50;13.30;;;;;;5334278;26;20536;-71
2024/04/16 04:18:04;;;;;;;4.60;0.70;;;4.40;13.70;;;;;;5334471;26;20328;-72
2024/04/16 04:20:30;;;;;;;1.60;0.60;;;4.40;14.00;;;;;;5334550;26;20281;-72
2024/04/16 04:22:55;;;;;;;2.10;0.73;;;4.40;11.90;;;;;;5334142;26;20227;-71
2024/04/16 04:25:21;;;;;;;2.83;0.93;;;4.40;12.70;;;;;;5333933;26;20296;-71
2024/04/16 04:27:46;;;;;;;2.13;0.80;;;4.40;11.70;;;;;;5334179;26;20313;-71
2024/04/16 04:30:13;;;;;;;4.90;0.90;;;4.40;11.90;;;;;;5334238;26;20346;-72
2024/04/16 04:32:39;;;;;;;2.25;0.90;;;4.50;11.30;;;;;;5334099;26;20718;-71
2024/04/16 04:35:04;;;;;;;4.90;1.47;;;4.40;11.20;;;;;;5333854;26;20332;-71
2024/04/16 04:37:30;;;;;;;3.60;1.17;;;4.40;12.30;;;;;;5334477;26;20227;-72
2024/04/16 04:39:55;;;;;;;2.80;0.90;;;4.40;10.80;;;;;;5334435;26;20369;-72
2024/04/16 04:42:21;;;;;;;3.60;0.90;;;4.40;8.70;;;;;;5334350;26;20224;-71
2024/04/16 04:44:47;;;;;;;3.58;0.93;;;4.40;9.60;;;;;;5331984;26;20227;-71
2024/04/16 04:47:12;;;;;;;2.30;0.90;;;4.50;8.00;;;;;;5334103;26;20232;-71
2024/04/16 04:49:39;;;;;;;2.63;1.37;;;4.50;6.90;;;;;;5332114;26;20679;-71
2024/04/16 04:52:04;;;;;;;2.03;0.98;;;4.40;7.20;;;;;;5333609;26;20271;-71
2024/04/16 04:54:30;;;;;;;2.57;1.00;;;4.40;6.80;;;;;;5333562;26;20225;-71
2024/04/16 04:56:55;;;;;;;2.90;1.13;;;4.40;7.10;;;;;;5332155;26;20239;-74
2024/04/16 04:59:21;;;;;;;3.17;1.43;;;4.40;8.70;;;;;;5333722;26;20230;-71
2024/04/16 05:01:46;;;;;;;3.17;1.30;;;4.40;9.00;;;;;;5333786;26;20290;-72
2024/04/16 05:04:12;;;;;;;3.53;1.10;;;4.40;9.20;;;;;;5333626;26;20807;-72
2024/04/16 05:06:38;;;;;;;4.40;1.50;;;4.50;9.30;;;;;;5334056;26;20222;-72
2024/04/16 05:09:05;;;;;;;2.37;0.97;;;4.50;8.90;;;;;;5334278;26;20227;-71
2024/04/16 05:11:31;;;;;;;4.25;1.40;;;4.60;8.40;;;;;;5334174;26;20732;-72
2024/04/16 05:13:56;;;;;;;2.10;0.83;;;4.70;9.50;;;;;;5333778;26;20266;-72
2024/04/16 05:16:23;;;;;;;3.30;1.20;;;4.80;10.10;;;;;;5333614;26;20240;-71
2024/04/16 05:18:48;;;;;;;2.50;1.02;;;4.90;7.20;;;;;;5331824;26;20251;-72
2024/04/16 05:21:14;;;;;;;3.93;1.33;;;4.90;7.60;;;;;;5333581;26;20240;-71
2024/04/16 05:23:40;;;;;;;4.00;1.63;;;5.00;7.20;;;;;;5336361;26;20744;-71
2024/04/16 05:26:05;;;;;;;4.13;1.20;;;5.10;5.50;;;;;;5337145;26;20361;-71
2024/04/16 05:28:32;;;;;;;2.30;1.00;;;5.20;5.70;;;;;;5337136;26;20998;-71
2024/04/16 05:30:59;;;;;;;3.93;1.63;;;5.20;5.40;;;;;;5336666;26;20307;-71
2024/04/16 05:33:25;;;;;;;3.45;1.45;;;5.30;5.00;;;;;;5336321;26;21005;-71
2024/04/16 05:35:51;;;;;;;4.60;1.30;;;5.20;4.40;;;;;;5334482;26;20652;-72
2024/04/16 05:38:16;;;;;;;14.97;4.37;;;5.30;4.20;;;;;;5334852;26;20481;-71
2024/04/16 05:40:42;;;;;;;3.90;1.10;;;5.30;3.90;;;;;;5334657;26;20302;-72
2024/04/16 05:43:07;;;;;;;4.50;1.50;;;5.30;2.90;;;;;;5335262;26;20237;-72
2024/04/16 05:45:33;;;;;;;3.63;1.03;;;5.30;2.20;;;;;;5337040;26;20222;-72
2024/04/16 05:47:58;;;;;;;3.67;1.40;;;5.30;1.00;;;;;;5336917;26;20224;-72
2024/04/16 05:50:24;;;;;;;4.70;1.27;;;5.50;1.40;;;;;;5336855;26;20240;-72
2024/04/16 05:52:49;;;;;;;2.97;0.93;;;5.50;1.00;;;;;;5336620;26;20576;-72
2024/04/16 05:55:15;;;;;;;8.00;1.20;;;5.50;1.00;;;;;;5334393;26;20270;-72
2024/04/16 05:57:41;;;;;;;3.93;1.10;;;5.40;1.00;;;;;;5336461;26;20396;-71
2024/04/16 06:00:07;;;;;;;3.00;1.20;;;5.40;1.00;;;;;;5336278;26;20248;-72
2024/04/16 06:02:32;;;;;;;3.88;2.13;;;5.60;1.00;;;;;;5336574;26;20229;-72
2024/04/16 06:04:58;;;;;;;3.70;1.23;;;5.60;1.00;;;;;;5336142;26;20279;-71
2024/04/16 06:07:23;;;;;;;4.80;1.77;;;5.80;1.00;;;;;;5336232;26;20302;-72
2024/04/16 06:09:49;;;;;;;7.83;1.77;;;6.40;1.00;;;;;;5336272;26;20238;-72
2024/04/16 06:12:15;;;;;;;3.87;1.10;;;7.50;1.00;;;;;;5336368;26;20265;-71
2024/04/16 06:14:41;;;;;;;5.57;2.03;;;7.80;1.00;;;;;;5334173;26;20285;-72
2024/04/16 06:17:06;;;;;;;5.77;1.80;;;7.70;1.00;;;;;;5336164;26;20453;-72
2024/04/16 06:19:32;;;;;;;5.20;2.30;;;7.40;1.00;;;;;;5336665;26;20468;-71
2024/04/16 06:21:57;;;;;;;6.07;2.03;;;7.10;1.00;;;;;;5336365;26;20222;-71
2024/04/16 06:24:23;;;;;;;2.83;1.13;;;7.00;1.00;;;;;;5336128;26;20225;-72
2024/04/16 06:26:48;;;;;;;3.17;1.33;;;6.90;1.00;;;;;;5334275;26;20689;-71
2024/04/16 06:29:15;;;;;;;4.87;1.30;;;6.70;1.00;;;;;;5336001;26;20335;-71
2024/04/16 06:31:40;;;;;;;9.20;2.20;;;6.60;1.00;;;;;;5336925;26;20222;-72
2024/04/16 06:34:06;;;;;;;5.80;1.40;;;6.70;1.00;;;;;;5333865;26;20501;-72
2024/04/16 06:36:31;;;;;;;7.27;2.00;;;7.10;1.00;;;;;;5334322;26;20230;-72
2024/04/16 06:38:57;;;;;;;4.33;1.40;;;7.10;1.00;;;;;;5336130;26;20322;-72
2024/04/16 06:41:22;;;;;;;5.10;1.80;;;6.90;1.00;;;;;;5336196;26;20277;-71
2024/04/16 06:43:48;;;;;;;4.87;1.70;;;7.00;1.00;;;;;;5333988;26;20283;-72
2024/04/16 06:46:14;;;;;;;2.97;1.37;;;7.00;1.00;;;;;;5336147;26;20810;-72
2024/04/16 06:48:39;;;;;;;6.57;2.07;;;7.20;1.00;;;;;;5336713;26;20338;-72
2024/04/16 06:51:05;;;;;;;3.37;2.10;;;7.90;1.00;;;;;;5336416;26;20312;-72
2024/04/16 06:53:30;;;;;;;5.27;1.97;;;10.00;1.00;;;;;;5335313;26;20223;-72
2024/04/16 06:56:06;;;;;;;4.17;1.80;;;10.40;1.00;;;;;;5336375;26;20832;-72
2024/04/16 06:58:32;;;;;;;6.40;1.90;;;;;;;;;;5336751;26;20704;-72
2024/04/16 07:00:58;;;;;;;4.43;1.97;;;12.40;1.00;;;;;;5336775;26;20517;-72
2024/04/16 07:03:24;;;;;;;3.63;1.80;;;14.60;1.00;;;;;;5336070;26;20457;-72
2024/04/16 07:05:50;;;;;;;4.67;2.03;;;14.60;1.00;;;;;;5336670;26;20444;-72
2024/04/16 07:08:17;;;;;;;6.20;2.87;;;14.80;1.00;;;;;;5335853;26;20701;-71
2024/04/16 07:10:42;;;;;;;3.27;2.20;;;13.70;1.00;;;;;;5339130;26;20462;-71
2024/04/16 07:13:08;;;;;;;4.33;2.33;;;12.80;1.00;;;;;;5340280;26;20456;-71
2024/04/16 07:15:33;;;;;;;6.87;1.90;;;12.20;1.00;;;;;;5339270;26;20228;-71
2024/04/16 07:17:59;;;;;;;4.60;2.00;;;12.70;1.00;;;;;;5336523;26;20421;-71
2024/04/16 07:20:26;;;;;;;3.73;2.27;;;11.70;1.00;;;;;;5336213;26;20231;-71
2024/04/16 07:22:51;;;;;;;3.50;1.93;;;12.00;1.00;;;;;;5335646;26;20218;-71
2024/04/16 07:25:17;;;;;;;5.10;2.27;;;11.60;1.00;;;;;;5335265;26;20452;-71
2024/04/16 07:27:44;;;;;;;5.20;2.20;;;10.30;1.00;;;;;;5335487;26;20556;-70
2024/04/16 07:30:10;;;;;;;5.57;3.00;;;9.60;1.00;;;;;;5335615;26;20514;-70
2024/04/16 07:32:36;;;;;;;2.87;1.40;;;9.20;1.00;;;;;;5335709;26;20455;-71
2024/04/16 07:35:01;;;;;;;3.53;1.90;;;8.70;1.00;;;;;;5335334;26;20552;-70
2024/04/16 07:37:27;;;;;;;5.70;1.63;;;8.80;1.00;;;;;;5335893;26;20225;-70
2024/04/16 07:39:53;;;;;;;10.43;2.00;;;8.60;1.00;;;;;;5356752;21;20271;-70
2024/04/16 07:42:18;;;;;;;8.93;2.23;;;8.50;1.00;;;;;;5336495;26;20224;-69
2024/04/16 07:44:44;;;;;;;4.60;1.80;;;8.60;1.00;;;;;;5334782;26;20216;-69
2024/04/16 07:47:09;;;;;;;9.70;1.77;;;8.90;1.00;;;;;;5336303;26;20640;-70
2024/04/16 07:49:35;;;;;;;2.83;1.63;;;8.90;1.00;;;;;;5336024;26;20224;-72
2024/04/16 07:52:00;;;;;;;3.80;1.47;;;8.90;1.00;;;;;;5335966;26;20236;-70
2024/04/16 07:54:26;;;;;;;3.37;2.00;;;8.80;1.00;;;;;;5335714;26;20658;-70
2024/04/16 07:56:53;;;;;;;6.00;2.50;;;8.70;1.00;;;;;;5336313;26;20705;-70
2024/04/16 07:59:21;;;;;;;4.30;1.53;;;9.10;1.00;;;;;;5336120;26;20741;-70
2024/04/16 08:01:47;;;;;;;11.67;2.50;;;9.00;1.00;;;;;;5335904;26;20463;-70
2024/04/16 08:04:12;;;;;;;3.47;2.30;;;9.10;1.00;;;;;;5336214;26;20564;-70
2024/04/16 08:06:38;;;;;;;3.60;2.33;;;9.10;1.00;;;;;;5338405;26;20225;-70
2024/04/16 08:09:03;;;;;;;3.70;2.47;;;10.00;1.00;;;;;;5338809;26;20709;-69
2024/04/16 08:11:29;;;;;;;3.00;1.90;;;10.80;1.00;;;;;;5336653;26;20264;-70
2024/04/16 08:13:54;;;;;;;3.80;1.90;;;10.30;1.00;;;;;;5337674;26;20264;-70
2024/04/16 08:16:20;;;;;;;2.93;1.80;;;9.70;1.00;;;;;;5335002;26;20332;-70
2024/04/16 08:18:46;;;;;;;3.30;1.70;;;9.30;1.00;;;;;;5336597;26;20416;-71
2024/04/16 08:21:12;;;;;;;4.23;1.73;;;9.30;1.00;;;;;;5336793;26;20293;-71
2024/04/16 08:23:38;;;;;;;4.33;2.00;;;9.50;1.00;;;;;;5335911;26;20810;-72
2024/04/16 08:26:08;;;;;;;3.13;1.50;;;9.40;1.00;;;;;;5334647;26;20233;-71
2024/04/16 08:28:34;;;;;;;3.87;2.13;;;9.20;1.00;;;;;;5336564;26;20608;-70
2024/04/16 08:31:01;;;;;;;2.77;1.70;;;9.40;1.00;;;;;;5334423;26;20471;-71
2024/04/16 08:33:27;;;;;;;5.40;2.07;;;10.00;1.00;;;;;;5335908;26;20788;-70
2024/04/16 08:35:53;;;;;;;3.67;2.73;;;11.30;1.00;;;;;;5337494;26;20448;-72
2024/04/16 08:38:19;;;;;;;2.60;1.70;;;10.90;1.00;;;;;;5336629;26;20230;-70
2024/04/16 08:40:45;;;;;;;5.43;2.20;;;10.60;1.00;;;;;;5336207;26;20460;-70
2024/04/16 08:43:12;;;;;;;4.33;2.17;;;11.20;1.00;;;;;;5336581;26;20452;-70
2024/04/16 08:45:38;;;;;;;5.40;1.80;;;12.70;1.00;;;;;;5335715;26;20499;-70
2024/04/16 08:48:05;;;;;;;2.80;2.13;;;13.60;1.00;;;;;;5335115;26;20811;-71
2024/04/16 08:50:33;;;;;;;3.80;2.23;;;15.00;1.00;;;;;;5335211;26;20782;-70
2024/04/16 08:52:59;;;;;;;7.40;2.47;;;13.50;1.00;;;;;;5333363;26;20524;-69
2024/04/16 08:55:26;;;;;;;2.53;1.67;;;12.90;1.00;;;;;;5335347;26;20452;-70
2024/04/16 08:57:52;;;;;;;2.47;1.60;;;11.70;1.00;;;;;;5338720;26;20433;-70
2024/04/16 09:00:18;;;;;;;2.60;1.70;;;10.40;1.00;;;;;;5336738;26;20534;-70
2024/04/16 09:02:49;;;;;;;3.17;1.30;;;10.10;1.00;;;;;;5336629;26;20705;-70
2024/04/16 09:05:15;;;;;;;2.60;2.00;;;10.20;1.00;;;;;;5336160;26;20523;-70
2024/04/16 09:07:41;;;;;;;2.30;1.40;;;10.00;1.00;;;;;;5339098;26;20488;-69
2024/04/16 09:10:19;;;;;;;3.93;3.00;;;9.60;1.00;;;;;;5337968;26;20895;-70
2024/04/16 09:12:46;;;;;;;5.87;1.97;;;9.70;1.00;;;;;;5336542;26;20333;-68
2024/04/16 09:15:20;;;;;;;3.60;2.10;;;9.80;1.00;;;;;;5337647;26;21095;-69
2024/04/16 09:17:51;;;;;;;2.23;1.30;;;10.10;1.00;;;;;;5338004;26;20565;-70
2024/04/16 09:20:19;;;;;;;2.57;1.60;;;10.60;1.00;;;;;;5337975;26;20472;-69
2024/04/16 09:22:48;;;;;;;4.90;1.57;;;10.70;1.00;;;;;;5338008;26;20531;-70
2024/04/16 09:25:14;;;;;;;5.80;2.37;;;10.60;1.00;;;;;;5335650;26;20456;-69
2024/04/16 09:27:40;;;;;;;2.63;1.90;;;10.50;1.00;;;;;;5338173;26;20448;-69
2024/04/16 09:30:10;;;;;;;5.07;1.80;;;10.60;1.00;;;;;;5335641;26;20467;-70
2024/04/16 09:32:36;;;;;;;5.50;2.17;;;10.50;1.00;;;;;;5337821;26;20590;-68
2024/04/16 09:35:02;;;;;;;19.07;3.83;;;10.50;1.00;;;;;;5337590;26;21034;-69
2024/04/16 09:37:28;;;;;;;7.10;3.17;;;10.80;1.00;;;;;;5335940;26;20456;-69
2024/04/16 09:39:54;;;;;;;3.60;2.10;;;10.90;1.00;;;;;;5337838;26;20796;-70
2024/04/16 09:42:21;;;;;;;2.47;1.73;;;10.90;1.00;;;;;;5336148;26;20673;-71
2024/04/16 09:44:48;;;;;;;3.97;1.80;;;11.20;1.00;;;;;;5338033;26;20504;-69
2024/04/16 09:47:17;;;;;;;2.33;1.70;;;11.50;1.00;;;;;;5336262;26;20826;-69
2024/04/16 09:49:44;;;;;;;5.63;2.13;;;11.40;1.00;;;;;;5338361;26;20861;-70
2024/04/16 09:52:12;;;;;;;5.63;1.97;;;11.10;1.00;;;;;;5338286;26;20453;-69
2024/04/16 09:54:42;;;;;;;2.03;1.33;;;11.10;1.00;;;;;;5336053;26;20456;-69
2024/04/16 09:57:10;;;;;;;2.90;2.03;;;10.90;1.00;;;;;;5336925;26;20460;-70
2024/04/16 09:59:38;;;;;;;2.47;1.50;;;11.10;1.00;;;;;;5336419;26;20777;-70
2024/04/16 10:02:04;;;;;;;3.00;1.87;;;11.30;1.00;;;;;;5340603;26;20448;-70
2024/04/16 10:04:30;;;;;;;2.83;1.73;;;11.40;1.00;;;;;;5339530;26;20500;-70
2024/04/16 10:06:56;;;;;;;3.90;1.70;;;11.90;1.00;;;;;;5340593;26;20520;-70
2024/04/16 10:09:23;;;;;;;2.23;1.50;;;12.00;1.00;;;;;;5340178;26;20450;-70
2024/04/16 10:11:49;;;;;;;2.80;1.70;;;11.90;1.00;;;;;;5344827;26;20464;-70
2024/04/16 10:14:15;;;;;;;4.80;2.27;;;11.70;1.00;;;;;;5342706;26;20538;-70
2024/04/16 10:16:41;;;;;;;2.87;1.70;;;11.30;1.00;;;;;;5338038;26;20893;-70
2024/04/16 10:19:07;;;;;;;5.83;2.13;;;10.90;1.00;;;;;;5336191;26;20461;-70
2024/04/16 10:21:40;;;;;;;8.23;1.70;;;10.60;1.00;;;;;;5338453;26;20310;-70
2024/04/16 10:24:10;;;;;;;2.10;1.43;;;10.70;1.00;;;;;;5338657;26;20500;-70
2024/04/16 10:26:42;;;;;;;1.80;1.23;;;10.60;1.00;;;;;;5337536;26;20455;-70
2024/04/16 10:29:26;;;;;;;3.00;1.37;;;10.50;1.00;;;;;;5337476;26;20505;-69
2024/04/16 10:31:54;;;;;;;6.63;1.50;;;11.10;1.00;;;;;;5335548;26;21004;-71
2024/04/16 10:34:24;;;;;;;5.87;2.60;;;11.00;1.00;;;;;;5337349;26;20489;-70
2024/04/16 10:36:55;;;;;;;9.53;1.77;;;11.20;1.00;;;;;;5337540;26;20490;-71
2024/04/16 10:39:28;;;;;;;3.90;1.60;;;11.40;1.00;;;;;;5338832;26;20456;-70
2024/04/16 10:41:57;;;;;;;1.93;1.37;;;11.60;1.00;;;;;;5336802;26;20465;-70
2024/04/16 10:44:23;;;;;;;2.33;1.50;;;11.40;1.00;;;;;;5335649;26;20892;-72
2024/04/16 10:46:50;;;;;;;2.80;1.80;;;11.40;1.00;;;;;;5335981;26;20433;-69
2024/04/16 10:49:17;;;;;;;3.80;1.90;;;11.60;1.00;;;;;;5336115;26;20932;-69
2024/04/16 10:51:43;;;;;;;2.33;1.70;;;11.30;1.00;;;;;;5336199;26;20509;-72
2024/04/16 10:54:09;;;;;;;4.80;1.70;;;11.70;1.00;;;;;;5335714;26;20441;-69
2024/04/16 10:56:39;;;;;;;2.20;1.57;;;12.20;1.00;;;;;;5336585;26;20311;-70
2024/04/16 10:59:06;;;;;;;6.60;2.37;;;12.20;1.00;;;;;;5334580;26;20464;-69
2024/04/16 11:01:32;;;;;;;3.03;1.80;;;12.10;1.00;;;;;;5335732;26;20532;-71
2024/04/16 11:04:11;;;;;;;4.17;1.87;;;11.90;1.00;;;;;;5333899;26;21011;-71
2024/04/16 11:06:38;;;;;;;2.90;1.67;;;11.70;1.00;;;;;;5334167;26;20942;-70
2024/04/16 11:09:04;;;;;;;3.17;1.63;;;12.00;1.00;;;;;;5335814;26;20452;-70
2024/04/16 11:11:33;;;;;;;3.00;1.63;;;12.00;1.00;;;;;;5335973;26;20515;-70
2024/04/16 11:14:02;;;;;;;5.73;1.90;;;11.80;1.00;;;;;;5335417;26;20441;-69
2024/04/16 11:16:28;;;;;;;3.50;1.83;;;11.60;1.00;;;;;;5335826;26;20436;-70
2024/04/16 11:18:55;;;;;;;2.60;1.90;;;11.90;1.00;;;;;;5334674;26;20559;-70
2024/04/16 11:21:21;;;;;;;2.07;1.53;;;12.40;1.00;;;;;;5333530;26;20338;-70
2024/04/16 11:23:48;;;;;;;3.73;1.60;;;12.70;1.00;;;;;;5333493;26;20494;-70
2024/04/16 11:26:14;;;;;;;3.13;1.50;;;12.80;1.00;;;;;;5335925;26;20510;-70
2024/04/16 11:28:41;;;;;;;2.57;1.57;;;12.80;1.00;;;;;;5333755;26;20461;-71
2024/04/16 11:31:06;;;;;;;1.93;1.30;;;12.70;1.00;;;;;;5333744;26;20526;-68
2024/04/16 11:33:34;;;;;;;2.30;1.47;;;12.50;1.00;;;;;;5335184;26;20449;-69
2024/04/16 11:36:09;;;;;;;2.57;1.40;;;12.40;1.00;;;;;;5335796;26;20567;-70
2024/04/16 11:38:35;;;;;;;1.80;1.20;;;12.00;1.00;;;;;;5335866;26;20494;-70
2024/04/16 11:41:02;;;;;;;2.70;1.30;;;11.90;1.00;;;;;;5335216;26;20460;-70
2024/04/16 11:43:34;;;;;;;2.00;1.20;;;11.90;1.00;;;;;;5335424;26;20508;-70
2024/04/16 11:46:04;;;;;;;3.80;1.93;;;12.10;1.00;;;;;;5335841;26;20448;-71
2024/04/16 11:48:30;;;;;;;3.40;1.20;;;12.20;1.00;;;;;;5335455;26;20449;-70
2024/04/16 11:50:56;;;;;;;2.20;1.40;;;12.00;1.00;;;;;;5335409;26;20655;-71
2024/04/16 11:53:22;;;;;;;2.83;1.67;;;12.00;1.00;;;;;;5333592;26;20464;-71
2024/04/16 11:55:47;;;;;;;1.90;1.30;;;12.40;1.00;;;;;;5335247;26;20658;-73
2024/04/16 11:58:13;;;;;;;1.70;1.40;;;12.40;1.00;;;;;;5335413;26;20620;-70
2024/04/16 12:00:39;;;;;;;2.53;1.40;;;12.40;1.00;;;;;;5335120;26;20625;-69
2024/04/16 12:03:05;;;;;;;2.17;1.10;;;12.50;1.00;;;;;;5333622;26;20291;-71
2024/04/16 12:05:30;;;;;;;2.53;1.40;;;13.00;1.00;;;;;;5333282;26;20571;-71
2024/04/16 12:07:57;;;;;;;2.30;1.53;;;13.10;1.00;;;;;;5333525;26;20299;-70
2024/04/16 12:10:23;;;;;;;2.17;1.57;;;13.40;1.00;;;;;;5335108;26;20246;-71
2024/04/16 12:12:49;;;;;;;3.87;2.07;;;13.50;1.00;;;;;;5333360;26;20508;-68
2024/04/16 12:15:16;;;;;;;2.47;1.70;;;13.40;1.00;;;;;;5334830;26;20905;-69
2024/04/16 12:17:42;;;;;;;2.90;1.47;;;13.10;1.00;;;;;;5337429;26;20222;-69
2024/04/16 12:20:08;;;;;;;4.17;2.17;;;12.40;1.00;;;;;;5335249;26;20496;-69
2024/04/16 12:22:34;;;;;;;3.87;1.80;;;12.20;1.00;;;;;;5335389;26;20259;-69
2024/04/16 12:24:59;;;;;;;2.47;1.43;;;12.00;1.00;;;;;;5336204;26;20452;-68
2024/04/16 12:27:26;;;;;;;2.17;1.13;;;11.60;1.00;;;;;;5333804;26;20506;-69
2024/04/16 12:29:52;;;;;;;5.37;1.57;;;11.50;1.00;;;;;;5333462;26;20228;-69
2024/04/16 12:32:17;;;;;;;4.90;1.03;;;11.10;1.00;;;;;;5342203;26;20524;-69
2024/04/16 12:34:43;;;;;;;2.10;1.30;;;10.80;1.00;;;;;;5341765;26;20224;-69
2024/04/16 12:37:08;;;;;;;4.20;1.20;;;10.90;1.00;;;;;;5342454;26;20268;-69
2024/04/16 12:39:34;;;;;;;2.80;1.53;;;11.00;1.00;;;;;;5342030;26;20682;-70
2024/04/16 12:42:00;;;;;;;4.90;1.30;;;11.30;1.00;;;;;;5341979;26;20290;-68
2024/04/16 12:44:26;;;;;;;1.90;1.20;;;11.70;1.00;;;;;;5339974;26;20245;-69
2024/04/16 12:46:52;;;;;;;4.33;1.80;;;12.40;1.00;;;;;;5340440;26;20456;-69
2024/04/16 12:49:27;;;;;;;2.73;1.13;;;12.50;1.00;;;;;;5342009;26;20521;-69
2024/04/16 12:51:53;;;;;;;1.70;1.20;;;12.70;1.00;;;;;;5340051;26;20334;-70
2024/04/16 12:54:19;;;;;;;2.17;1.43;;;13.00;1.00;;;;;;5341472;26;20603;-69